SBOSBO OLB / LIEO
Speedbird OnlineSpeedbird Online OLB / LIEO

Olbia Costa Smeralda Airport
09:23 15°C

Location Olbia, Italy
Latitude: 40.898701
Longitude: 9.51763
Web Wikipedia
Altitude 11 Meter / 37 Feet
Distance 1,381 KM / 858 Miles
from London.
Time Zone UTC +2 hours (Europe/Rome)
Codes IATA: OLB
ICAO: LIEO
Currency £1 equals EUR 1.15
Runways
RunwayLength (m)Surface
052745Asphalt
232745Asphalt
Radio
TypeDescriptionFrequency
APPOLBIA RADAR125.95
ATISATIS113.9
TWROLBIA TWR118.975
Live ATC
METAR LIEO 060650Z VRB01KT CAVOK 15/12 Q1027
TAF TAF LIEO 060500Z 0606/0706 23005KT CAVOK BECMG 0608/0610 10010KT BECMG 0618/0620 VRB05KT
Weather As Of 06 Oct 2022 09:23
Description Clear sky
Wind 2 km/h from North (0°)
Cloud Cover 0%
Precipitation Rain: none, Snow: none
Sunrise 07:23
Sunset 18:56
Lounges Olbia Airport VIp Club Lounge, Main Terminal
Club Lounge, Main Terminal
Rotations During the last 90 days there were
66 flights from LHR
9 flights from LGW
61 flights to LHR
8 flights to LGW


© 2017-2022 Speedbird Online